createdAt,value
2018-05-09T00:00:05.772Z,15.64
2018-05-09T00:01:05.923Z,15.57
2018-05-09T00:02:06.165Z,15.61
2018-05-09T00:03:06.285Z,15.46
2018-05-09T00:04:06.465Z,15.54
2018-05-09T00:05:06.661Z,15.64
2018-05-09T00:06:06.832Z,15.62
2018-05-09T00:08:07.187Z,15.51
2018-05-09T00:09:07.448Z,15.67
2018-05-09T00:10:07.556Z,15.55
2018-05-09T00:11:07.735Z,15.43
2018-05-09T00:12:07.921Z,15.31
2018-05-09T00:13:08.098Z,15.27
2018-05-09T00:14:08.292Z,15.31
2018-05-09T00:15:08.460Z,15.18
2018-05-09T00:16:08.641Z,15.15
2018-05-09T00:17:08.820Z,15.15
2018-05-09T00:18:09.000Z,15.03
2018-05-09T00:19:09.185Z,14.88
2018-05-09T00:20:09.374Z,14.89
2018-05-09T00:21:09.549Z,14.73
2018-05-09T00:22:09.731Z,14.69
2018-05-09T00:23:09.910Z,14.60
2018-05-09T00:24:10.088Z,14.66
2018-05-09T00:25:10.278Z,14.58
2018-05-09T00:26:10.452Z,14.66
2018-05-09T00:27:10.635Z,14.68
2018-05-09T00:28:10.819Z,14.62
2018-05-09T00:29:10.995Z,14.60
2018-05-09T00:30:11.178Z,14.51
2018-05-09T00:31:11.369Z,14.40
2018-05-09T00:32:11.566Z,14.35
2018-05-09T00:33:11.723Z,14.45
2018-05-09T00:34:11.952Z,14.43
2018-05-09T00:35:12.080Z,14.26
2018-05-09T00:36:12.260Z,14.30
2018-05-09T00:37:12.444Z,14.32
2018-05-09T00:38:12.621Z,14.32
2018-05-09T00:39:12.811Z,14.36
2018-05-09T00:40:12.983Z,14.33
2018-05-09T00:41:13.179Z,14.32
2018-05-09T00:42:13.359Z,14.36
2018-05-09T00:43:13.534Z,14.25
2018-05-09T00:44:13.715Z,14.29
2018-05-09T00:45:13.894Z,14.33
2018-05-09T00:46:14.076Z,14.36
2018-05-09T00:47:14.265Z,14.37
2018-05-09T00:48:14.736Z,14.28
2018-05-09T00:49:14.619Z,14.32
2018-05-09T00:50:14.896Z,14.33
2018-05-09T00:51:14.988Z,14.20
2018-05-09T00:52:15.167Z,14.12
2018-05-09T00:53:15.346Z,14.10
2018-05-09T00:54:15.533Z,14.10
2018-05-09T00:55:15.705Z,14.07
2018-05-09T00:56:15.886Z,14.05
2018-05-09T00:57:16.073Z,13.96
2018-05-09T00:58:16.249Z,13.95
2018-05-09T00:59:16.432Z,13.87
2018-05-09T01:00:16.607Z,13.86
2018-05-09T01:01:16.794Z,13.89
2018-05-09T01:02:16.965Z,14.03
2018-05-09T01:03:17.144Z,14.00
2018-05-09T01:04:17.326Z,14.05
2018-05-09T01:05:17.511Z,14.04
2018-05-09T01:07:17.864Z,14.15
2018-05-09T01:08:18.048Z,14.23
2018-05-09T01:09:18.226Z,14.18
2018-05-09T01:10:18.406Z,14.29
2018-05-09T01:11:18.582Z,14.20
2018-05-09T01:12:18.771Z,14.18
2018-05-09T01:13:18.945Z,14.17
2018-05-09T01:14:19.128Z,14.17
2018-05-09T01:15:19.304Z,14.18
2018-05-09T01:16:19.488Z,14.12
2018-05-09T01:17:19.662Z,14.05
2018-05-09T01:18:19.844Z,13.96
2018-05-09T01:19:20.029Z,13.86
2018-05-09T01:20:20.207Z,13.87
2018-05-09T01:21:20.387Z,13.83
2018-05-09T01:22:20.565Z,13.78
2018-05-09T01:23:20.750Z,13.77
2018-05-09T01:24:20.935Z,13.74
2018-05-09T01:26:21.283Z,13.63
2018-05-09T01:27:21.466Z,13.50
2018-05-09T01:28:21.639Z,13.46
2018-05-09T01:29:21.824Z,13.38
2018-05-09T01:30:22.015Z,13.30
2018-05-09T01:31:22.184Z,13.33
2018-05-09T01:32:22.369Z,13.30
2018-05-09T01:33:22.554Z,13.31
2018-05-09T01:34:22.725Z,13.38
2018-05-09T01:35:22.917Z,13.41
2018-05-09T01:36:23.076Z,13.52
2018-05-09T01:37:23.256Z,13.59
2018-05-09T01:38:23.435Z,13.71
2018-05-09T01:39:23.621Z,13.67
2018-05-09T01:40:23.802Z,13.68
2018-05-09T01:41:23.981Z,13.72
2018-05-09T01:42:24.164Z,13.68
2018-05-09T01:43:24.343Z,13.81
2018-05-09T01:44:24.518Z,13.79
2018-05-09T01:45:24.696Z,13.79
2018-05-09T01:46:24.882Z,13.77
2018-05-09T01:47:25.056Z,13.57
2018-05-09T01:48:25.237Z,13.42
2018-05-09T01:49:25.419Z,13.38
2018-05-09T01:50:25.616Z,13.39
2018-05-09T01:51:25.788Z,13.38
2018-05-09T01:52:25.973Z,13.41
2018-05-09T01:53:26.148Z,13.27
2018-05-09T01:54:26.326Z,13.30
2018-05-09T01:55:26.508Z,13.20
2018-05-09T01:56:26.691Z,13.28
2018-05-09T01:57:26.874Z,13.38
2018-05-09T01:58:27.045Z,13.28
2018-05-09T01:59:27.518Z,13.28
2018-05-09T02:00:27.402Z,13.18
2018-05-09T02:01:27.579Z,13.15
2018-05-09T02:02:27.762Z,13.19
2018-05-09T02:03:27.951Z,13.20
2018-05-09T02:04:28.127Z,13.19
2018-05-09T02:05:28.310Z,13.18
2018-05-09T02:06:28.483Z,13.18
2018-05-09T02:07:28.668Z,13.08
2018-05-09T02:08:28.848Z,13.19
2018-05-09T02:10:29.204Z,13.19
2018-05-09T02:11:29.389Z,13.18
2018-05-09T02:12:29.570Z,13.19
2018-05-09T02:13:29.742Z,13.15
2018-05-09T02:14:29.996Z,13.16
2018-05-09T02:15:30.100Z,13.19
2018-05-09T02:16:30.282Z,13.19
2018-05-09T02:17:30.565Z,13.19
2018-05-09T02:18:30.642Z,13.19
2018-05-09T02:19:30.824Z,13.18
2018-05-09T02:20:31.004Z,13.12
2018-05-09T02:21:31.182Z,13.20
2018-05-09T02:22:31.368Z,13.15
2018-05-09T02:23:31.545Z,13.20
2018-05-09T02:24:31.729Z,13.19
2018-05-09T02:25:31.909Z,13.20
2018-05-09T02:26:32.101Z,13.19
2018-05-09T02:27:32.277Z,13.01
2018-05-09T02:28:32.458Z,13.15
2018-05-09T02:29:32.637Z,13.13
2018-05-09T02:30:32.823Z,12.98
2018-05-09T02:31:33.007Z,12.95
2018-05-09T02:32:33.184Z,12.93
2018-05-09T02:33:33.709Z,12.90
2018-05-09T02:34:33.518Z,12.87
2018-05-09T02:35:33.703Z,12.85
2018-05-09T02:36:33.878Z,12.80
2018-05-09T02:37:34.067Z,12.73
2018-05-09T02:38:34.244Z,12.72
2018-05-09T02:39:34.422Z,12.64
2018-05-09T02:40:34.602Z,12.67
2018-05-09T02:41:34.780Z,12.60
2018-05-09T02:42:34.961Z,12.62
2018-05-09T02:43:35.280Z,12.50
2018-05-09T02:44:35.320Z,12.65
2018-05-09T02:45:35.506Z,12.55
2018-05-09T02:46:35.673Z,12.62
2018-05-09T02:47:35.853Z,12.54
2018-05-09T02:48:36.037Z,12.67
2018-05-09T02:49:36.211Z,12.60
2018-05-09T02:50:36.389Z,12.64
2018-05-09T02:51:36.569Z,12.64
2018-05-09T02:52:36.751Z,12.65
2018-05-09T02:53:36.940Z,12.76
2018-05-09T02:54:37.105Z,12.64
2018-05-09T02:55:37.286Z,12.68
2018-05-09T02:56:37.467Z,12.60
2018-05-09T02:57:37.644Z,12.47
2018-05-09T02:58:37.825Z,12.47
2018-05-09T02:59:38.010Z,12.50
2018-05-09T03:00:38.188Z,12.54
2018-05-09T03:01:38.370Z,12.46
2018-05-09T03:02:38.547Z,12.45
2018-05-09T03:03:38.725Z,12.45
2018-05-09T03:04:38.915Z,12.60
2018-05-09T03:05:39.084Z,12.62
2018-05-09T03:06:39.266Z,12.62
2018-05-09T03:07:39.444Z,12.60
2018-05-09T03:08:39.629Z,12.65
2018-05-09T03:09:39.810Z,12.60
2018-05-09T03:10:39.984Z,12.62
2018-05-09T03:11:40.162Z,12.70
2018-05-09T03:12:40.343Z,12.68
2018-05-09T03:13:40.523Z,12.58
2018-05-09T03:14:40.703Z,12.64
2018-05-09T03:15:40.882Z,12.68
2018-05-09T03:16:41.062Z,12.53
2018-05-09T03:17:41.246Z,12.61
2018-05-09T03:18:41.429Z,12.55
2018-05-09T03:19:41.603Z,12.68
2018-05-09T03:20:41.775Z,12.64
2018-05-09T03:21:41.963Z,12.67
2018-05-09T03:22:42.141Z,12.67
2018-05-09T03:23:42.320Z,12.64
2018-05-09T03:24:42.501Z,12.64
2018-05-09T03:25:42.681Z,12.65
2018-05-09T03:26:42.861Z,12.65
2018-05-09T03:27:43.052Z,12.67
2018-05-09T03:28:43.224Z,12.67
2018-05-09T03:29:43.428Z,12.65
2018-05-09T03:30:43.582Z,12.67
2018-05-09T03:31:43.769Z,12.49
2018-05-09T03:32:43.939Z,12.45
2018-05-09T03:33:44.123Z,12.24
2018-05-09T03:34:44.301Z,12.29
2018-05-09T03:35:44.477Z,12.32
2018-05-09T03:36:44.657Z,12.27
2018-05-09T03:37:44.838Z,12.24
2018-05-09T03:38:45.017Z,12.25
2018-05-09T03:39:45.204Z,12.35
2018-05-09T03:40:45.379Z,12.45
2018-05-09T03:41:45.563Z,12.45
2018-05-09T03:42:45.737Z,12.42
2018-05-09T03:43:45.916Z,12.40
2018-05-09T03:44:46.094Z,12.32
2018-05-09T03:45:46.281Z,12.22
2018-05-09T03:46:46.456Z,12.18
2018-05-09T03:47:46.633Z,12.24
2018-05-09T03:48:46.811Z,12.24
2018-05-09T03:49:46.990Z,12.28
2018-05-09T03:50:47.169Z,12.28
2018-05-09T03:51:47.350Z,12.22
2018-05-09T03:52:47.528Z,12.15
2018-05-09T03:53:47.709Z,12.10
2018-05-09T03:54:47.894Z,12.02
2018-05-09T03:55:48.073Z,12.06
2018-05-09T03:56:48.256Z,12.09
2018-05-09T03:57:48.443Z,12.02
2018-05-09T03:58:48.628Z,12.10
2018-05-09T03:59:48.801Z,11.99
2018-05-09T04:00:48.971Z,12.03
2018-05-09T04:01:49.149Z,12.10
2018-05-09T04:02:49.328Z,12.10
2018-05-09T04:03:49.503Z,12.17
2018-05-09T04:04:49.686Z,12.12
2018-05-09T04:05:49.872Z,12.12
2018-05-09T04:06:50.047Z,12.13
2018-05-09T04:07:50.224Z,12.13
2018-05-09T04:08:50.403Z,12.17
2018-05-09T04:09:50.584Z,12.13
2018-05-09T04:10:50.775Z,12.13
2018-05-09T04:11:51.194Z,12.04
2018-05-09T04:12:51.137Z,12.04
2018-05-09T04:13:51.305Z,11.86
2018-05-09T04:14:51.489Z,11.97
2018-05-09T04:15:51.674Z,11.88
2018-05-09T04:16:51.843Z,12.09
2018-05-09T04:17:52.028Z,12.13
2018-05-09T04:18:52.207Z,12.24
2018-05-09T04:19:52.383Z,12.25
2018-05-09T04:20:52.574Z,12.47
2018-05-09T04:21:52.772Z,12.90
2018-05-09T04:22:52.920Z,13.11
2018-05-09T04:23:53.109Z,13.33
2018-05-09T04:24:53.273Z,13.70
2018-05-09T04:25:53.465Z,14.05
2018-05-09T04:26:53.638Z,14.37
2018-05-09T04:27:53.818Z,14.62
2018-05-09T04:28:53.999Z,14.91
2018-05-09T04:29:54.182Z,15.04
2018-05-09T04:30:54.362Z,15.14
2018-05-09T04:31:54.548Z,15.39
2018-05-09T04:32:54.722Z,15.54
2018-05-09T04:33:54.904Z,15.86
2018-05-09T04:34:55.087Z,16.02
2018-05-09T04:35:55.283Z,16.20
2018-05-09T04:36:55.449Z,16.23
2018-05-09T04:37:55.633Z,16.33
2018-05-09T04:38:55.816Z,16.56
2018-05-09T04:39:56.002Z,16.68
2018-05-09T04:40:56.182Z,16.72
2018-05-09T04:41:56.479Z,17.11
2018-05-09T04:42:56.550Z,17.09
2018-05-09T04:43:56.737Z,17.19
2018-05-09T04:44:56.918Z,17.31
2018-05-09T04:45:57.104Z,17.59
2018-05-09T04:46:57.293Z,17.72
2018-05-09T04:47:57.472Z,17.90
2018-05-09T04:48:57.654Z,18.00
2018-05-09T04:49:57.839Z,18.19
2018-05-09T04:50:58.026Z,18.25
2018-05-09T04:51:58.215Z,18.56
2018-05-09T04:52:58.405Z,18.38
2018-05-09T04:53:58.590Z,18.38
2018-05-09T04:54:58.784Z,18.55
2018-05-09T04:55:58.966Z,18.55
2018-05-09T04:56:59.149Z,18.71
2018-05-09T04:57:59.339Z,18.92
2018-05-09T04:58:59.594Z,18.80
2018-05-09T04:59:59.707Z,18.63
2018-05-09T05:00:59.891Z,18.52
2018-05-09T05:02:00.083Z,18.53
2018-05-09T05:03:00.273Z,18.73
2018-05-09T05:04:00.464Z,18.81
2018-05-09T05:05:00.644Z,19.04
2018-05-09T05:06:00.835Z,18.95
2018-05-09T05:07:01.059Z,19.16
2018-05-09T05:08:01.197Z,19.37
2018-05-09T05:09:01.390Z,19.36
2018-05-09T05:10:01.575Z,19.29
2018-05-09T05:11:01.756Z,19.29
2018-05-09T05:12:01.952Z,19.16
2018-05-09T05:13:02.141Z,19.52
2018-05-09T05:14:02.330Z,19.37
2018-05-09T05:15:02.517Z,19.63
2018-05-09T05:16:02.704Z,19.51
2018-05-09T05:17:02.900Z,19.64
2018-05-09T05:18:03.087Z,19.86
2018-05-09T05:19:03.267Z,19.76
2018-05-09T05:20:03.448Z,19.94
2018-05-09T05:21:03.647Z,20.18
2018-05-09T05:22:03.914Z,20.32
2018-05-09T05:23:04.032Z,20.39
2018-05-09T05:24:04.222Z,20.04
2018-05-09T05:25:04.407Z,20.24
2018-05-09T05:26:04.596Z,20.31
2018-05-09T05:27:04.845Z,20.39
2018-05-09T05:28:04.974Z,20.56
2018-05-09T05:29:05.162Z,21.05
2018-05-09T05:30:05.353Z,21.15
2018-05-09T05:31:05.545Z,20.92
2018-05-09T05:32:05.730Z,21.15
2018-05-09T05:33:05.921Z,20.95
2018-05-09T05:34:06.106Z,20.74
2018-05-09T05:35:06.296Z,20.66
2018-05-09T05:36:06.487Z,20.58
2018-05-09T05:37:06.673Z,21.06
2018-05-09T05:38:06.868Z,20.95
2018-05-09T05:39:07.064Z,20.95
2018-05-09T05:40:07.240Z,21.22
2018-05-09T05:41:07.433Z,21.03
2018-05-09T05:42:07.616Z,21.37
2018-05-09T05:43:07.810Z,21.15
2018-05-09T05:44:07.998Z,21.45
2018-05-09T05:45:08.305Z,21.82
2018-05-09T05:46:08.384Z,21.77
2018-05-09T05:47:08.576Z,21.73
2018-05-09T05:48:08.760Z,21.92
2018-05-09T05:49:08.954Z,22.06
2018-05-09T05:50:09.150Z,21.66
2018-05-09T05:51:09.337Z,21.54
2018-05-09T05:52:09.530Z,21.52
2018-05-09T05:53:09.714Z,21.70
2018-05-09T05:54:09.893Z,22.08
2018-05-09T05:55:10.089Z,22.43
2018-05-09T05:56:10.362Z,21.92
2018-05-09T05:57:10.456Z,21.95
2018-05-09T05:58:10.650Z,22.22
2018-05-09T05:59:11.088Z,22.35
2018-05-09T06:00:11.039Z,22.57
2018-05-09T06:01:11.231Z,22.39
2018-05-09T06:02:11.426Z,22.51
2018-05-09T06:03:11.648Z,22.70
2018-05-09T06:04:11.808Z,22.48
2018-05-09T06:05:11.997Z,20.41
2018-05-09T06:06:12.191Z,20.81
2018-05-09T06:07:12.379Z,20.63
2018-05-09T06:08:12.571Z,21.29
2018-05-09T06:09:12.761Z,21.52
2018-05-09T06:10:12.951Z,21.72
2018-05-09T06:11:13.140Z,21.57
2018-05-09T06:12:13.334Z,21.33
2018-05-09T06:13:13.522Z,21.60
2018-05-09T06:14:13.712Z,21.98
2018-05-09T06:15:13.936Z,22.11
2018-05-09T06:16:14.084Z,22.44
2018-05-09T06:17:14.371Z,22.70
2018-05-09T06:18:14.479Z,23.10
2018-05-09T06:19:14.656Z,23.36
2018-05-09T06:20:14.845Z,23.28
2018-05-09T06:21:15.037Z,23.63
2018-05-09T06:22:15.235Z,23.92
2018-05-09T06:23:15.452Z,23.78
2018-05-09T06:24:15.751Z,23.93
2018-05-09T06:25:15.812Z,24.16
2018-05-09T06:26:16.017Z,24.42
2018-05-09T06:27:16.195Z,24.63
2018-05-09T06:28:16.396Z,24.40
2018-05-09T06:29:16.593Z,23.61
2018-05-09T06:30:16.795Z,23.39
2018-05-09T06:31:17.226Z,23.65
2018-05-09T06:32:17.175Z,24.18
2018-05-09T06:33:17.369Z,23.92
2018-05-09T06:34:17.557Z,23.43
2018-05-09T06:35:17.746Z,22.80
2018-05-09T06:36:17.943Z,23.36
2018-05-09T06:37:18.134Z,23.23
2018-05-09T06:38:18.314Z,23.37
2018-05-09T06:39:18.497Z,23.92
2018-05-09T06:40:18.679Z,24.65
2018-05-09T06:41:18.876Z,25.21
2018-05-09T06:42:19.062Z,25.03
2018-05-09T06:43:19.249Z,24.24
2018-05-09T06:44:19.441Z,23.69
2018-05-09T06:45:19.634Z,23.69
2018-05-09T06:46:19.828Z,23.78
2018-05-09T06:47:20.012Z,23.98
2018-05-09T06:48:20.202Z,24.55
2018-05-09T06:49:20.401Z,25.16
2018-05-09T06:50:20.584Z,25.10
2018-05-09T06:51:20.781Z,25.01
2018-05-09T06:52:21.203Z,24.66
2018-05-09T06:53:21.154Z,24.47
2018-05-09T06:54:21.344Z,24.54
2018-05-09T06:55:21.536Z,24.85
2018-05-09T06:56:21.734Z,25.01
2018-05-09T06:57:21.928Z,25.25
2018-05-09T06:58:22.119Z,25.66
2018-05-09T06:59:22.310Z,26.00
2018-05-09T07:00:22.485Z,26.18
2018-05-09T07:01:22.669Z,26.25
2018-05-09T07:02:22.864Z,26.38
2018-05-09T07:03:23.056Z,26.63
2018-05-09T07:04:23.273Z,26.93
2018-05-09T07:05:23.418Z,27.03
2018-05-09T07:06:23.744Z,26.09
2018-05-09T07:07:23.792Z,25.62
2018-05-09T07:08:24.049Z,25.18
2018-05-09T07:09:24.201Z,24.74
2018-05-09T07:10:24.425Z,24.51
2018-05-09T07:11:24.604Z,24.06
2018-05-09T07:12:24.804Z,23.84
2018-05-09T07:13:24.992Z,23.69
2018-05-09T07:14:25.167Z,23.58
2018-05-09T07:15:25.368Z,23.20
2018-05-09T07:16:25.774Z,22.80
2018-05-09T07:17:25.722Z,22.30
2018-05-09T07:18:25.909Z,21.99
2018-05-09T07:19:26.100Z,21.50
2018-05-09T07:20:26.292Z,21.62
2018-05-09T07:21:26.472Z,21.50
2018-05-09T07:22:26.661Z,21.55
2018-05-09T07:23:26.941Z,21.43
2018-05-09T07:24:27.032Z,20.95
2018-05-09T07:25:27.218Z,20.96
2018-05-09T07:26:27.396Z,21.42
2018-05-09T07:27:27.668Z,21.36
2018-05-09T07:28:28.023Z,21.69
2018-05-09T07:29:27.989Z,21.88
2018-05-09T07:30:28.184Z,22.80
2018-05-09T07:31:28.641Z,23.51
2018-05-09T07:32:28.579Z,24.18
2018-05-09T07:33:28.776Z,24.33
2018-05-09T07:34:29.023Z,24.42
2018-05-09T07:35:29.149Z,24.77
2018-05-09T07:36:29.512Z,25.01
2018-05-09T07:37:29.506Z,25.10
2018-05-09T07:38:29.664Z,25.31
2018-05-09T07:39:29.841Z,25.41
2018-05-09T07:40:30.023Z,25.51
2018-05-09T07:41:30.203Z,25.63
2018-05-09T07:42:30.387Z,25.91
2018-05-09T07:43:30.586Z,26.13
2018-05-09T07:44:30.765Z,26.21
2018-05-09T07:45:30.953Z,26.16
2018-05-09T07:46:31.136Z,26.44
2018-05-09T07:47:31.399Z,26.83
2018-05-09T07:48:31.501Z,26.75
2018-05-09T07:49:31.671Z,26.75
2018-05-09T07:50:31.853Z,26.58
2018-05-09T07:51:32.477Z,26.56
2018-05-09T07:52:32.326Z,26.71
2018-05-09T07:53:32.460Z,26.26
2018-05-09T07:54:32.656Z,26.41
2018-05-09T07:55:32.907Z,26.62
2018-05-09T07:56:33.017Z,26.44
2018-05-09T07:57:33.611Z,26.45
2018-05-09T07:58:33.488Z,25.90
2018-05-09T07:59:33.629Z,25.95
2018-05-09T08:00:33.807Z,25.88
2018-05-09T08:01:34.018Z,24.69
2018-05-09T08:02:34.195Z,24.96
2018-05-09T08:03:35.405Z,25.43
2018-05-09T08:04:34.603Z,25.73
2018-05-09T08:05:34.766Z,24.80
2018-05-09T08:06:34.922Z,25.26
2018-05-09T08:07:35.103Z,25.46
2018-05-09T08:08:35.831Z,25.31
2018-05-09T08:09:35.499Z,25.78
2018-05-09T08:10:35.679Z,25.83
2018-05-09T08:11:35.859Z,26.05
2018-05-09T08:12:36.042Z,26.18
2018-05-09T08:13:36.212Z,26.71
2018-05-09T08:14:36.720Z,26.02
2018-05-09T08:15:36.680Z,25.95
2018-05-09T08:16:36.834Z,26.26
2018-05-09T08:17:37.023Z,26.03
2018-05-09T08:18:37.217Z,26.52
2018-05-09T08:20:37.555Z,26.31
2018-05-09T08:21:37.723Z,26.36
2018-05-09T08:22:37.915Z,26.26
2018-05-09T08:23:38.068Z,26.43
2018-05-09T08:24:38.262Z,26.95
2018-05-09T08:25:38.434Z,26.93
2018-05-09T08:26:38.816Z,27.12
2018-05-09T08:27:38.765Z,27.02
2018-05-09T08:28:38.940Z,27.15
2018-05-09T08:29:39.123Z,26.93
2018-05-09T08:30:39.292Z,27.10
2018-05-09T08:31:39.474Z,27.37
2018-05-09T08:32:39.670Z,27.71
2018-05-09T08:33:39.846Z,27.73
2018-05-09T08:34:40.048Z,27.08
2018-05-09T08:35:40.218Z,27.30
2018-05-09T08:36:40.489Z,27.45
2018-05-09T08:37:40.576Z,27.68
2018-05-09T08:38:40.771Z,27.77
2018-05-09T08:39:40.927Z,27.75
2018-05-09T08:40:41.132Z,27.29
2018-05-09T08:41:41.319Z,27.12
2018-05-09T08:42:41.520Z,26.74
2018-05-09T08:43:41.750Z,26.45
2018-05-09T08:44:41.836Z,26.89
2018-05-09T08:45:42.015Z,27.35
2018-05-09T08:46:42.242Z,26.29
2018-05-09T08:47:42.367Z,26.65
2018-05-09T08:48:42.586Z,27.17
2018-05-09T08:49:42.758Z,26.66
2018-05-09T08:50:42.953Z,26.65
2018-05-09T08:51:43.159Z,26.89
2018-05-09T08:52:43.326Z,27.21
2018-05-09T08:53:43.509Z,27.39
2018-05-09T08:54:43.687Z,27.78
2018-05-09T08:55:43.843Z,27.87
2018-05-09T08:56:44.033Z,28.14
2018-05-09T08:57:44.241Z,27.96
2018-05-09T08:58:44.415Z,28.00
2018-05-09T08:59:44.619Z,28.12
2018-05-09T09:00:44.790Z,28.12
2018-05-09T09:01:44.993Z,28.04
2018-05-09T09:02:45.159Z,27.74
2018-05-09T09:03:45.398Z,28.05
2018-05-09T09:04:45.510Z,28.01
2018-05-09T09:05:45.676Z,27.48
2018-05-09T09:06:45.903Z,27.64
2018-05-09T09:07:46.063Z,27.68
2018-05-09T09:08:46.240Z,27.60
2018-05-09T09:09:46.441Z,27.60
2018-05-09T09:10:46.642Z,28.10
2018-05-09T09:11:46.799Z,28.15
2018-05-09T09:12:47.019Z,28.38
2018-05-09T09:13:47.204Z,28.17
2018-05-09T09:14:47.608Z,28.15
2018-05-09T09:15:47.613Z,28.47
2018-05-09T09:16:47.824Z,28.33
2018-05-09T09:17:48.019Z,28.08
2018-05-09T09:18:48.193Z,28.04
2018-05-09T09:19:48.405Z,28.30
2018-05-09T09:20:48.660Z,27.90
2018-05-09T09:21:48.744Z,28.10
2018-05-09T09:22:48.911Z,28.52
2018-05-09T09:23:49.104Z,28.47
2018-05-09T09:24:49.283Z,28.23
2018-05-09T09:25:49.481Z,28.19
2018-05-09T09:26:49.659Z,28.19
2018-05-09T09:27:49.826Z,28.14
2018-05-09T09:28:50.007Z,28.42
2018-05-09T09:29:50.237Z,28.67
2018-05-09T09:30:50.399Z,26.99
2018-05-09T09:31:50.585Z,26.43
2018-05-09T09:32:50.749Z,26.26
2018-05-09T09:33:50.951Z,26.02
2018-05-09T09:34:51.145Z,26.73
2018-05-09T09:35:51.275Z,25.58
2018-05-09T09:36:51.537Z,26.21
2018-05-09T09:37:51.647Z,26.56
2018-05-09T09:38:52.001Z,27.21
2018-05-09T09:39:52.003Z,27.49
2018-05-09T09:40:52.179Z,27.92
2018-05-09T09:41:52.351Z,28.14
2018-05-09T09:42:52.547Z,28.15
2018-05-09T09:43:52.736Z,28.72
2018-05-09T09:44:52.928Z,28.01
2018-05-09T09:45:53.095Z,28.33
2018-05-09T09:46:53.378Z,27.70
2018-05-09T09:47:53.577Z,26.78
2018-05-09T09:48:53.663Z,26.02
2018-05-09T09:49:53.839Z,25.16
2018-05-09T09:50:54.053Z,25.80
2018-05-09T09:51:54.255Z,26.63
2018-05-09T09:52:54.376Z,27.35
2018-05-09T09:53:54.557Z,27.35
2018-05-09T09:54:54.738Z,27.74
2018-05-09T09:55:54.915Z,27.96
2018-05-09T09:56:55.101Z,28.23
2018-05-09T09:57:55.341Z,28.29
2018-05-09T09:58:55.778Z,27.18
2018-05-09T09:59:55.682Z,27.26
2018-05-09T10:00:55.871Z,26.97
2018-05-09T10:01:56.069Z,27.39
2018-05-09T10:02:56.249Z,27.33
2018-05-09T10:03:56.450Z,27.35
2018-05-09T10:04:56.613Z,27.18
2018-05-09T10:05:56.786Z,27.48
2018-05-09T10:06:57.142Z,28.00
2018-05-09T10:07:57.289Z,27.93
2018-05-09T10:08:57.410Z,27.47
2018-05-09T10:09:57.851Z,27.02
2018-05-09T10:10:57.780Z,26.63
2018-05-09T10:11:57.951Z,26.45
2018-05-09T10:12:58.127Z,26.68
2018-05-09T10:13:58.310Z,26.59
2018-05-09T10:14:58.503Z,26.29
2018-05-09T10:15:58.685Z,25.91
2018-05-09T10:16:58.867Z,25.98
2018-05-09T10:17:59.055Z,25.98
2018-05-09T10:18:59.206Z,25.98
2018-05-09T10:19:59.627Z,25.53
2018-05-09T10:20:59.589Z,25.40
2018-05-09T10:21:59.752Z,25.46
2018-05-09T10:23:00.000Z,25.50
2018-05-09T10:24:00.154Z,25.28
2018-05-09T10:25:00.300Z,25.60
2018-05-09T10:26:00.545Z,25.50
2018-05-09T10:27:00.719Z,25.90
2018-05-09T10:28:00.884Z,26.02
2018-05-09T10:29:01.091Z,25.77
2018-05-09T10:30:01.246Z,25.85
2018-05-09T10:31:01.442Z,25.66
2018-05-09T10:32:01.616Z,25.53
2018-05-09T10:33:01.773Z,25.54
2018-05-09T10:34:02.210Z,25.50
2018-05-09T10:35:02.147Z,25.25
2018-05-09T10:36:02.361Z,25.53
2018-05-09T10:37:02.494Z,25.95
2018-05-09T10:38:02.695Z,26.13
2018-05-09T10:39:02.870Z,25.55
2018-05-09T10:40:03.034Z,25.62
2018-05-09T10:41:03.226Z,25.88
2018-05-09T10:42:03.371Z,26.15
2018-05-09T10:43:03.580Z,26.18
2018-05-09T10:44:03.748Z,25.59
2018-05-09T10:45:03.895Z,26.00
2018-05-09T10:46:04.127Z,26.00
2018-05-09T10:47:04.241Z,25.70
2018-05-09T10:48:04.413Z,25.69
2018-05-09T10:49:04.639Z,25.48
2018-05-09T10:50:04.799Z,25.36
2018-05-09T10:51:04.999Z,25.44
2018-05-09T10:52:05.175Z,25.72
2018-05-09T10:53:05.378Z,25.47
2018-05-09T10:54:05.558Z,25.66
2018-05-09T10:55:05.704Z,25.87
2018-05-09T10:56:05.924Z,26.09
2018-05-09T10:57:06.104Z,26.06
2018-05-09T10:58:06.320Z,25.66
2018-05-09T10:59:06.504Z,25.54
2018-05-09T11:00:07.721Z,25.58
2018-05-09T11:01:06.799Z,25.73
2018-05-09T11:02:06.956Z,25.66
2018-05-09T11:03:07.117Z,25.91
2018-05-09T11:05:07.543Z,26.56
2018-05-09T11:06:07.643Z,26.74
2018-05-09T11:07:07.839Z,26.33
2018-05-09T11:08:08.018Z,26.26
2018-05-09T11:09:08.527Z,26.18
2018-05-09T11:10:08.797Z,26.51
2018-05-09T11:11:08.574Z,26.62
2018-05-09T11:12:08.782Z,26.58
2018-05-09T11:13:08.982Z,25.63
2018-05-09T11:14:09.146Z,25.31
2018-05-09T11:15:09.331Z,25.44
2018-05-09T11:16:09.520Z,25.80
2018-05-09T11:17:09.687Z,25.99
2018-05-09T11:18:09.862Z,26.00
2018-05-09T11:19:10.046Z,26.03
2018-05-09T11:20:10.268Z,26.03
2018-05-09T11:21:10.463Z,25.18
2018-05-09T11:22:10.631Z,25.44
2018-05-09T11:23:10.814Z,25.83
2018-05-09T11:24:10.988Z,25.98
2018-05-09T11:25:11.180Z,25.88
2018-05-09T11:26:11.357Z,25.95
2018-05-09T11:27:11.519Z,26.02
2018-05-09T11:28:11.747Z,26.23
2018-05-09T11:29:11.972Z,26.53
2018-05-09T11:30:12.042Z,26.21
2018-05-09T11:31:12.213Z,26.19
2018-05-09T11:32:12.401Z,26.52
2018-05-09T11:33:12.585Z,26.55
2018-05-09T11:34:12.758Z,26.81
2018-05-09T11:35:12.933Z,26.66
2018-05-09T11:36:13.139Z,26.59
2018-05-09T11:37:13.309Z,26.70
2018-05-09T11:38:13.573Z,26.56
2018-05-09T11:39:13.663Z,26.34
2018-05-09T11:40:13.863Z,26.47
2018-05-09T11:41:14.062Z,26.53
2018-05-09T11:42:14.199Z,26.45
2018-05-09T11:43:14.390Z,26.55
2018-05-09T11:44:14.558Z,26.62
2018-05-09T11:45:14.728Z,26.81
2018-05-09T11:46:14.907Z,27.00
2018-05-09T11:47:15.098Z,27.21
2018-05-09T11:48:15.318Z,27.36
2018-05-09T11:49:15.465Z,27.14
2018-05-09T11:50:15.663Z,27.00
2018-05-09T11:51:15.827Z,26.85
2018-05-09T11:52:15.994Z,26.68
2018-05-09T11:53:16.244Z,26.43
2018-05-09T11:54:16.366Z,26.51
2018-05-09T11:55:16.557Z,26.52
2018-05-09T11:56:16.747Z,26.16
2018-05-09T11:57:16.892Z,26.33
2018-05-09T11:58:17.077Z,26.75
2018-05-09T11:59:17.233Z,26.90
2018-05-09T12:00:17.401Z,26.59
2018-05-09T12:01:17.571Z,26.37
2018-05-09T12:02:17.798Z,26.41
2018-05-09T12:03:17.923Z,26.21
2018-05-09T12:04:18.093Z,26.23
2018-05-09T12:05:18.253Z,26.09
2018-05-09T12:06:18.478Z,25.84
2018-05-09T12:07:18.642Z,25.85
2018-05-09T12:08:18.821Z,25.84
2018-05-09T12:09:18.992Z,25.73
2018-05-09T12:10:19.302Z,25.26
2018-05-09T12:11:19.387Z,25.51
2018-05-09T12:12:19.573Z,25.83
2018-05-09T12:13:19.753Z,26.02
2018-05-09T12:14:19.907Z,26.21
2018-05-09T12:15:20.083Z,26.25
2018-05-09T12:16:20.268Z,26.55
2018-05-09T12:17:20.536Z,26.83
2018-05-09T12:18:20.640Z,26.88
2018-05-09T12:19:20.824Z,27.14
2018-05-09T12:20:20.974Z,27.36
2018-05-09T12:21:21.195Z,27.22
2018-05-09T12:22:21.458Z,27.29
2018-05-09T12:23:21.531Z,27.11
2018-05-09T12:24:21.697Z,26.63
2018-05-09T12:25:21.873Z,26.63
2018-05-09T12:26:22.070Z,26.58
2018-05-09T12:27:22.249Z,26.81
2018-05-09T12:28:22.441Z,26.77
2018-05-09T12:29:22.608Z,26.81
2018-05-09T12:30:22.772Z,26.68
2018-05-09T12:31:22.961Z,26.60
2018-05-09T12:32:23.144Z,26.47
2018-05-09T12:33:23.314Z,26.48
2018-05-09T12:34:23.569Z,26.37
2018-05-09T12:35:23.663Z,26.33
2018-05-09T12:36:23.910Z,26.22
2018-05-09T12:37:24.000Z,26.56
2018-05-09T12:38:24.186Z,26.66
2018-05-09T12:40:24.600Z,26.77
2018-05-09T12:41:24.754Z,26.96
2018-05-09T12:42:25.024Z,27.15
2018-05-09T12:43:25.115Z,27.39
2018-05-09T12:44:25.319Z,27.59
2018-05-09T12:45:25.471Z,27.36
2018-05-09T12:46:25.666Z,27.55
2018-05-09T12:47:25.823Z,27.77
2018-05-09T12:48:26.016Z,27.71
2018-05-09T12:49:26.202Z,27.74
2018-05-09T12:50:26.372Z,26.99
2018-05-09T12:51:26.558Z,26.84
2018-05-09T12:52:26.751Z,26.85
2018-05-09T12:53:26.933Z,26.81
2018-05-09T12:54:27.137Z,26.66
2018-05-09T12:55:27.292Z,26.43
2018-05-09T12:56:27.490Z,26.48
2018-05-09T12:57:27.656Z,26.56
2018-05-09T12:58:27.839Z,26.45
2018-05-09T12:59:28.017Z,26.55
2018-05-09T13:00:28.288Z,26.56
2018-05-09T13:01:28.364Z,26.59